sensor_id;sensor_type;location;lat;lon;timestamp;pressure;altitude;pressure_sealevel;temperature;humidity
29169;BME280;16219;42.864;23.360;2023-05-02T00:01:20;96219.19;;;9.75;100.00
29169;BME280;16219;42.864;23.360;2023-05-02T00:03:48;96205.63;;;9.68;100.00
29169;BME280;16219;42.864;23.360;2023-05-02T00:06:17;96208.94;;;9.60;100.00
29169;BME280;16219;42.864;23.360;2023-05-02T00:08:44;96208.16;;;9.59;100.00
29169;BME280;16219;42.864;23.360;2023-05-02T00:11:11;96207.13;;;9.60;100.00
29169;BME280;16219;42.864;23.360;2023-05-02T00:13:38;96204.19;;;9.62;100.00
29169;BME280;16219;42.864;23.360;2023-05-02T00:16:08;96209.66;;;9.65;100.00
29169;BME280;16219;42.864;23.360;2023-05-02T00:18:35;96212.56;;;9.64;100.00
29169;BME280;16219;42.864;23.360;2023-05-02T00:21:03;96211.09;;;9.58;100.00
29169;BME280;16219;42.864;23.360;2023-05-02T00:23:32;96207.09;;;9.46;100.00
29169;BME280;16219;42.864;23.360;2023-05-02T00:25:59;96206.63;;;9.44;100.00
29169;BME280;16219;42.864;23.360;2023-05-02T00:28:27;96209.81;;;9.41;100.00
29169;BME280;16219;42.864;23.360;2023-05-02T00:30:54;96207.19;;;9.41;100.00
29169;BME280;16219;42.864;23.360;2023-05-02T00:33:21;96207.78;;;9.38;100.00
29169;BME280;16219;42.864;23.360;2023-05-02T00:35:48;96212.06;;;9.34;100.00
29169;BME280;16219;42.864;23.360;2023-05-02T00:38:15;96208.28;;;9.26;100.00
29169;BME280;16219;42.864;23.360;2023-05-02T00:40:44;96213.22;;;9.28;100.00
29169;BME280;16219;42.864;23.360;2023-05-02T00:43:12;96212.16;;;9.29;100.00
29169;BME280;16219;42.864;23.360;2023-05-02T00:45:41;96218.50;;;9.28;100.00
29169;BME280;16219;42.864;23.360;2023-05-02T00:48:10;96216.66;;;9.29;100.00
29169;BME280;16219;42.864;23.360;2023-05-02T00:50:38;96236.31;;;9.17;100.00
29169;BME280;16219;42.864;23.360;2023-05-02T00:53:06;96235.47;;;9.22;100.00
29169;BME280;16219;42.864;23.360;2023-05-02T00:55:34;96228.91;;;9.19;100.00
29169;BME280;16219;42.864;23.360;2023-05-02T00:58:04;96242.56;;;9.21;100.00
29169;BME280;16219;42.864;23.360;2023-05-02T01:00:41;96244.72;;;9.33;100.00
29169;BME280;16219;42.864;23.360;2023-05-02T01:03:19;96240.84;;;9.31;100.00
29169;BME280;16219;42.864;23.360;2023-05-02T01:05:58;96238.66;;;9.19;100.00
29169;BME280;16219;42.864;23.360;2023-05-02T01:08:34;96237.22;;;9.26;100.00
29169;BME280;16219;42.864;23.360;2023-05-02T01:11:12;96245.59;;;9.15;100.00
29169;BME280;16219;42.864;23.360;2023-05-02T01:13:44;96243.63;;;9.20;100.00
29169;BME280;16219;42.864;23.360;2023-05-02T01:16:13;96246.84;;;9.17;100.00
29169;BME280;16219;42.864;23.360;2023-05-02T01:18:43;96233.88;;;9.07;100.00
29169;BME280;16219;42.864;23.360;2023-05-02T01:21:13;96225.97;;;9.07;100.00
29169;BME280;16219;42.864;23.360;2023-05-02T01:23:48;96241.56;;;9.17;100.00
29169;BME280;16219;42.864;23.360;2023-05-02T01:26:27;96248.50;;;9.13;100.00
29169;BME280;16219;42.864;23.360;2023-05-02T01:28:59;96240.31;;;9.15;100.00
29169;BME280;16219;42.864;23.360;2023-05-02T01:31:30;96244.50;;;9.16;100.00
29169;BME280;16219;42.864;23.360;2023-05-02T01:34:00;96237.59;;;9.20;100.00
29169;BME280;16219;42.864;23.360;2023-05-02T01:36:29;96241.78;;;9.21;100.00
29169;BME280;16219;42.864;23.360;2023-05-02T01:38:58;96235.94;;;9.24;100.00
29169;BME280;16219;42.864;23.360;2023-05-02T01:41:29;96240.03;;;9.30;100.00
29169;BME280;16219;42.864;23.360;2023-05-02T01:43:59;96241.72;;;9.26;100.00
29169;BME280;16219;42.864;23.360;2023-05-02T01:46:31;96245.69;;;9.23;100.00
29169;BME280;16219;42.864;23.360;2023-05-02T01:49:01;96245.00;;;9.18;100.00
29169;BME280;16219;42.864;23.360;2023-05-02T01:51:31;96246.16;;;9.12;100.00
29169;BME280;16219;42.864;23.360;2023-05-02T01:54:02;96238.06;;;9.08;100.00
29169;BME280;16219;42.864;23.360;2023-05-02T01:56:32;96236.91;;;9.14;100.00
29169;BME280;16219;42.864;23.360;2023-05-02T01:59:04;96240.31;;;9.15;100.00
29169;BME280;16219;42.864;23.360;2023-05-02T02:01:34;96234.56;;;9.13;100.00
29169;BME280;16219;42.864;23.360;2023-05-02T02:04:03;96237.28;;;9.08;100.00
29169;BME280;16219;42.864;23.360;2023-05-02T02:06:32;96233.28;;;9.10;100.00
29169;BME280;16219;42.864;23.360;2023-05-02T02:08:59;96234.53;;;8.99;100.00
29169;BME280;16219;42.864;23.360;2023-05-02T02:11:35;96239.00;;;8.98;100.00
29169;BME280;16219;42.864;23.360;2023-05-02T02:14:06;96233.94;;;8.88;100.00
29169;BME280;16219;42.864;23.360;2023-05-02T02:16:40;96240.31;;;8.82;100.00
29169;BME280;16219;42.864;23.360;2023-05-02T02:19:09;96237.47;;;8.79;100.00
29169;BME280;16219;42.864;23.360;2023-05-02T02:21:39;96236.03;;;8.86;100.00
29169;BME280;16219;42.864;23.360;2023-05-02T02:24:08;96237.00;;;8.76;100.00
29169;BME280;16219;42.864;23.360;2023-05-02T02:26:36;96238.84;;;8.76;100.00
29169;BME280;16219;42.864;23.360;2023-05-02T02:29:05;96243.81;;;8.77;100.00
29169;BME280;16219;42.864;23.360;2023-05-02T02:31:32;96235.72;;;8.74;100.00
29169;BME280;16219;42.864;23.360;2023-05-02T02:34:01;96237.94;;;8.67;100.00
29169;BME280;16219;42.864;23.360;2023-05-02T02:36:32;96234.72;;;8.70;100.00
29169;BME280;16219;42.864;23.360;2023-05-02T02:39:07;96235.78;;;8.69;100.00
29169;BME280;16219;42.864;23.360;2023-05-02T02:41:42;96238.72;;;8.67;100.00
29169;BME280;16219;42.864;23.360;2023-05-02T02:44:24;96242.91;;;8.68;100.00
29169;BME280;16219;42.864;23.360;2023-05-02T02:46:59;96246.25;;;8.55;100.00
29169;BME280;16219;42.864;23.360;2023-05-02T02:49:34;96239.22;;;8.50;100.00
29169;BME280;16219;42.864;23.360;2023-05-02T02:52:09;96242.13;;;8.49;100.00
29169;BME280;16219;42.864;23.360;2023-05-02T02:54:40;96242.13;;;8.49;100.00
29169;BME280;16219;42.864;23.360;2023-05-02T02:57:15;96224.69;;;8.34;100.00
29169;BME280;16219;42.864;23.360;2023-05-02T02:59:52;96248.75;;;8.46;100.00
29169;BME280;16219;42.864;23.360;2023-05-02T03:02:27;96243.28;;;8.43;100.00
29169;BME280;16219;42.864;23.360;2023-05-02T03:04:56;96248.25;;;8.44;100.00
29169;BME280;16219;42.864;23.360;2023-05-02T03:07:26;96246.75;;;8.38;100.00
29169;BME280;16219;42.864;23.360;2023-05-02T03:09:54;96259.06;;;8.43;100.00
29169;BME280;16219;42.864;23.360;2023-05-02T03:12:23;96256.25;;;8.34;100.00
29169;BME280;16219;42.864;23.360;2023-05-02T03:14:52;96246.44;;;8.21;100.00
29169;BME280;16219;42.864;23.360;2023-05-02T03:17:23;96257.09;;;8.30;100.00
29169;BME280;16219;42.864;23.360;2023-05-02T03:19:50;96263.47;;;8.23;100.00
29169;BME280;16219;42.864;23.360;2023-05-02T03:22:18;96267.47;;;8.21;100.00
29169;BME280;16219;42.864;23.360;2023-05-02T03:24:45;96271.66;;;8.22;100.00
29169;BME280;16219;42.864;23.360;2023-05-02T03:27:14;96280.69;;;8.16;100.00
29169;BME280;16219;42.864;23.360;2023-05-02T03:29:41;96282.84;;;8.09;100.00
29169;BME280;16219;42.864;23.360;2023-05-02T03:32:12;96279.09;;;8.15;100.00
29169;BME280;16219;42.864;23.360;2023-05-02T03:34:41;96274.53;;;8.01;100.00
29169;BME280;16219;42.864;23.360;2023-05-02T03:37:09;96276.97;;;8.17;100.00
29169;BME280;16219;42.864;23.360;2023-05-02T03:39:36;96285.34;;;8.19;100.00
29169;BME280;16219;42.864;23.360;2023-05-02T03:42:04;96287.50;;;8.17;100.00
29169;BME280;16219;42.864;23.360;2023-05-02T03:44:31;96286.66;;;8.21;100.00
29169;BME280;16219;42.864;23.360;2023-05-02T03:46:59;96291.59;;;8.23;100.00
29169;BME280;16219;42.864;23.360;2023-05-02T03:49:33;96294.69;;;8.30;100.00
29169;BME280;16219;42.864;23.360;2023-05-02T03:52:02;96290.75;;;8.27;100.00
29169;BME280;16219;42.864;23.360;2023-05-02T03:54:33;96293.06;;;8.34;100.00
29169;BME280;16219;42.864;23.360;2023-05-02T03:57:01;96301.72;;;8.35;100.00
29169;BME280;16219;42.864;23.360;2023-05-02T03:59:31;96298.50;;;8.43;100.00
29169;BME280;16219;42.864;23.360;2023-05-02T04:02:01;96296.16;;;8.41;100.00
29169;BME280;16219;42.864;23.360;2023-05-02T04:04:40;96293.63;;;8.31;100.00
29169;BME280;16219;42.864;23.360;2023-05-02T04:07:10;96297.25;;;8.35;100.00
29169;BME280;16219;42.864;23.360;2023-05-02T04:09:43;96296.16;;;8.36;100.00
29169;BME280;16219;42.864;23.360;2023-05-02T04:12:11;96293.06;;;8.34;100.00
29169;BME280;16219;42.864;23.360;2023-05-02T04:14:42;96288.03;;;8.38;100.00
29169;BME280;16219;42.864;23.360;2023-05-02T04:17:09;96298.78;;;8.41;100.00
29169;BME280;16219;42.864;23.360;2023-05-02T04:19:43;96291.53;;;8.52;100.00
29169;BME280;16219;42.864;23.360;2023-05-02T04:22:11;96298.47;;;8.62;100.00
29169;BME280;16219;42.864;23.360;2023-05-02T04:24:43;96301.00;;;8.72;100.00
29169;BME280;16219;42.864;23.360;2023-05-02T04:27:10;96297.84;;;8.70;100.00
29169;BME280;16219;42.864;23.360;2023-05-02T04:29:37;96301.47;;;8.74;100.00
29169;BME280;16219;42.864;23.360;2023-05-02T04:32:06;96303.06;;;8.75;100.00
29169;BME280;16219;42.864;23.360;2023-05-02T04:34:33;96307.88;;;8.68;100.00
29169;BME280;16219;42.864;23.360;2023-05-02T04:37:01;96301.38;;;8.79;100.00
29169;BME280;16219;42.864;23.360;2023-05-02T04:39:30;96305.22;;;8.87;100.00
29169;BME280;16219;42.864;23.360;2023-05-02T04:42:02;96300.59;;;8.97;100.00
29169;BME280;16219;42.864;23.360;2023-05-02T04:44:33;96299.09;;;9.10;100.00
29169;BME280;16219;42.864;23.360;2023-05-02T04:47:00;96300.13;;;9.28;100.00
29169;BME280;16219;42.864;23.360;2023-05-02T04:49:29;96300.66;;;9.44;100.00
29169;BME280;16219;42.864;23.360;2023-05-02T04:51:56;96296.84;;;9.50;100.00
29169;BME280;16219;42.864;23.360;2023-05-02T04:54:25;96298.81;;;9.58;100.00
29169;BME280;16219;42.864;23.360;2023-05-02T04:56:52;96294.06;;;9.74;100.00
29169;BME280;16219;42.864;23.360;2023-05-02T04:59:21;96299.03;;;10.03;100.00
29169;BME280;16219;42.864;23.360;2023-05-02T05:01:48;96289.88;;;10.28;100.00
29169;BME280;16219;42.864;23.360;2023-05-02T05:04:16;96300.63;;;10.68;100.00
29169;BME280;16219;42.864;23.360;2023-05-02T05:06:43;96297.75;;;11.23;100.00
29169;BME280;16219;42.864;23.360;2023-05-02T05:09:12;96298.13;;;11.92;100.00
29169;BME280;16219;42.864;23.360;2023-05-02T05:11:41;96307.75;;;12.28;100.00
29169;BME280;16219;42.864;23.360;2023-05-02T05:14:10;96296.25;;;12.50;100.00
29169;BME280;16219;42.864;23.360;2023-05-02T05:16:40;96300.91;;;12.44;100.00
29169;BME280;16219;42.864;23.360;2023-05-02T05:19:07;96298.22;;;12.27;100.00
29169;BME280;16219;42.864;23.360;2023-05-02T05:21:34;96299.75;;;12.11;100.00
29169;BME280;16219;42.864;23.360;2023-05-02T05:24:02;96296.47;;;12.14;100.00
29169;BME280;16219;42.864;23.360;2023-05-02T05:26:31;96298.22;;;12.27;100.00
29169;BME280;16219;42.864;23.360;2023-05-02T05:29:00;96298.72;;;12.38;100.00
29169;BME280;16219;42.864;23.360;2023-05-02T05:31:32;96292.97;;;12.44;100.00
29169;BME280;16219;42.864;23.360;2023-05-02T05:34:00;96296.09;;;12.55;100.00
29169;BME280;16219;42.864;23.360;2023-05-02T05:36:29;96299.53;;;12.73;100.00
29169;BME280;16219;42.864;23.360;2023-05-02T05:38:57;96290.97;;;12.93;100.00
29169;BME280;16219;42.864;23.360;2023-05-02T05:41:24;96301.22;;;13.12;100.00
29169;BME280;16219;42.864;23.360;2023-05-02T05:44:00;96301.09;;;13.17;100.00
29169;BME280;16219;42.864;23.360;2023-05-02T05:46:28;96309.28;;;13.50;100.00
29169;BME280;16219;42.864;23.360;2023-05-02T05:48:57;96301.31;;;13.68;100.00
29169;BME280;16219;42.864;23.360;2023-05-02T05:51:27;96313.44;;;13.78;100.00
29169;BME280;16219;42.864;23.360;2023-05-02T05:53:56;96317.41;;;14.01;100.00
29169;BME280;16219;42.864;23.360;2023-05-02T05:56:23;96312.38;;;14.38;100.00
29169;BME280;16219;42.864;23.360;2023-05-02T05:58:59;96312.50;;;14.50;100.00
29169;BME280;16219;42.864;23.360;2023-05-02T06:01:26;96317.00;;;14.79;100.00
29169;BME280;16219;42.864;23.360;2023-05-02T06:03:54;96313.03;;;14.85;100.00
29169;BME280;16219;42.864;23.360;2023-05-02T06:06:21;96320.50;;;14.92;100.00
29169;BME280;16219;42.864;23.360;2023-05-02T06:08:48;96323.13;;;15.13;100.00
29169;BME280;16219;42.864;23.360;2023-05-02T06:11:15;96319.81;;;15.16;100.00
29169;BME280;16219;42.864;23.360;2023-05-02T06:13:42;96325.63;;;15.30;100.00
29169;BME280;16219;42.864;23.360;2023-05-02T06:16:11;96323.66;;;15.06;100.00
29169;BME280;16219;42.864;23.360;2023-05-02T06:18:38;96321.38;;;15.17;100.00
29169;BME280;16219;42.864;23.360;2023-05-02T06:21:06;96315.34;;;15.41;100.00
29169;BME280;16219;42.864;23.360;2023-05-02T06:23:34;96318.94;;;15.57;100.00
29169;BME280;16219;42.864;23.360;2023-05-02T06:26:02;96310.94;;;15.78;100.00
29169;BME280;16219;42.864;23.360;2023-05-02T06:28:30;96315.41;;;16.11;100.00
29169;BME280;16219;42.864;23.360;2023-05-02T06:30:58;96309.84;;;16.40;100.00
29169;BME280;16219;42.864;23.360;2023-05-02T06:33:28;96314.28;;;16.48;100.00
29169;BME280;16219;42.864;23.360;2023-05-02T06:35:55;96316.06;;;16.57;100.00
29169;BME280;16219;42.864;23.360;2023-05-02T06:38:23;96317.38;;;16.75;100.00
29169;BME280;16219;42.864;23.360;2023-05-02T06:40:50;96312.88;;;16.91;100.00
29169;BME280;16219;42.864;23.360;2023-05-02T06:43:17;96305.34;;;16.69;100.00
29169;BME280;16219;42.864;23.360;2023-05-02T06:45:45;96311.25;;;16.62;97.42
29169;BME280;16219;42.864;23.360;2023-05-02T06:48:12;96317.38;;;16.75;100.00
29169;BME280;16219;42.864;23.360;2023-05-02T06:50:41;96304.38;;;16.73;100.00
29169;BME280;16219;42.864;23.360;2023-05-02T06:53:08;96307.56;;;16.91;100.00
29169;BME280;16219;42.864;23.360;2023-05-02T06:55:35;96298.78;;;16.91;90.26
29169;BME280;16219;42.864;23.360;2023-05-02T06:58:02;96306.03;;;16.78;96.09
29169;BME280;16219;42.864;23.360;2023-05-02T07:00:29;96301.31;;;16.99;90.49
29169;BME280;16219;42.864;23.360;2023-05-02T07:02:57;96305.34;;;17.21;95.55
29169;BME280;16219;42.864;23.360;2023-05-02T07:05:24;96298.38;;;17.33;86.03
29169;BME280;16219;42.864;23.360;2023-05-02T07:07:52;96299.19;;;17.49;93.79
29169;BME280;16219;42.864;23.360;2023-05-02T07:10:19;96298.59;;;17.56;84.27
29169;BME280;16219;42.864;23.360;2023-05-02T07:12:46;96302.63;;;17.78;83.65
29169;BME280;16219;42.864;23.360;2023-05-02T07:15:13;96303.56;;;17.85;73.97
29169;BME280;16219;42.864;23.360;2023-05-02T07:17:41;96303.63;;;17.73;75.71
29169;BME280;16219;42.864;23.360;2023-05-02T07:20:09;96316.84;;;17.97;88.23
29169;BME280;16219;42.864;23.360;2023-05-02T07:22:36;96308.81;;;17.97;76.74
29169;BME280;16219;42.864;23.360;2023-05-02T07:25:05;96301.91;;;17.96;58.39
29169;BME280;16219;42.864;23.360;2023-05-02T07:27:32;96296.06;;;17.75;63.35
29169;BME280;16219;42.864;23.360;2023-05-02T07:29:59;96307.84;;;17.74;59.40
29169;BME280;16219;42.864;23.360;2023-05-02T07:32:26;96305.78;;;17.83;58.70
29169;BME280;16219;42.864;23.360;2023-05-02T07:34:53;96295.63;;;17.73;60.87
29169;BME280;16219;42.864;23.360;2023-05-02T07:37:22;96317.91;;;17.65;61.24
29169;BME280;16219;42.864;23.360;2023-05-02T07:39:49;96301.31;;;17.71;56.87
29169;BME280;16219;42.864;23.360;2023-05-02T07:42:17;96301.66;;;17.86;54.81
29169;BME280;16219;42.864;23.360;2023-05-02T07:44:44;96308.31;;;17.76;55.32
29169;BME280;16219;42.864;23.360;2023-05-02T07:47:11;96319.63;;;17.73;53.41
29169;BME280;16219;42.864;23.360;2023-05-02T07:49:38;96311.31;;;17.74;55.81
29169;BME280;16219;42.864;23.360;2023-05-02T07:52:05;96307.19;;;17.77;53.26
29169;BME280;16219;42.864;23.360;2023-05-02T07:54:32;96307.34;;;18.00;56.57
29169;BME280;16219;42.864;23.360;2023-05-02T07:57:00;96310.44;;;18.18;54.47
29169;BME280;16219;42.864;23.360;2023-05-02T07:59:31;96291.59;;;18.27;58.67
29169;BME280;16219;42.864;23.360;2023-05-02T08:01:58;96295.56;;;18.52;57.71
29169;BME280;16219;42.864;23.360;2023-05-02T08:04:25;96296.38;;;18.72;62.19
29169;BME280;16219;42.864;23.360;2023-05-02T08:06:53;96298.09;;;18.80;52.36
29169;BME280;16219;42.864;23.360;2023-05-02T08:09:21;96291.28;;;18.83;49.07
29169;BME280;16219;42.864;23.360;2023-05-02T08:11:48;96290.28;;;18.71;50.52
29169;BME280;16219;42.864;23.360;2023-05-02T08:14:15;96299.00;;;18.88;50.88
29169;BME280;16219;42.864;23.360;2023-05-02T08:16:44;96287.28;;;18.92;49.45
29169;BME280;16219;42.864;23.360;2023-05-02T08:19:11;96295.13;;;18.85;54.12
29169;BME280;16219;42.864;23.360;2023-05-02T08:21:37;96293.19;;;19.02;54.88
29169;BME280;16219;42.864;23.360;2023-05-02T08:24:05;96285.44;;;18.96;51.04
29169;BME280;16219;42.864;23.360;2023-05-02T08:26:32;96295.97;;;18.89;50.71
29169;BME280;16219;42.864;23.360;2023-05-02T08:28:59;96299.25;;;18.63;53.78
29169;BME280;16219;42.864;23.360;2023-05-02T08:31:27;96290.09;;;18.64;50.63
29169;BME280;16219;42.864;23.360;2023-05-02T08:33:56;96309.84;;;18.60;58.94
29169;BME280;16219;42.864;23.360;2023-05-02T08:36:23;96290.50;;;18.82;55.48
29169;BME280;16219;42.864;23.360;2023-05-02T08:38:53;96283.19;;;18.98;53.26
29169;BME280;16219;42.864;23.360;2023-05-02T08:41:21;96293.03;;;18.94;50.58
29169;BME280;16219;42.864;23.360;2023-05-02T08:43:48;96286.69;;;19.03;57.58
29169;BME280;16219;42.864;23.360;2023-05-02T08:46:16;96297.81;;;19.05;51.93
29169;BME280;16219;42.864;23.360;2023-05-02T08:48:44;96292.97;;;19.10;54.73
29169;BME280;16219;42.864;23.360;2023-05-02T08:51:15;96289.16;;;19.11;53.99
29169;BME280;16219;42.864;23.360;2023-05-02T08:53:43;96296.59;;;19.41;53.51
29169;BME280;16219;42.864;23.360;2023-05-02T08:56:11;96301.53;;;19.39;49.10
29169;BME280;16219;42.864;23.360;2023-05-02T08:58:39;96293.06;;;19.37;48.76
29169;BME280;16219;42.864;23.360;2023-05-02T09:01:09;96306.25;;;19.45;52.56
29169;BME280;16219;42.864;23.360;2023-05-02T09:03:38;96288.75;;;19.52;49.06
29169;BME280;16219;42.864;23.360;2023-05-02T09:06:07;96295.72;;;19.56;50.72
29169;BME280;16219;42.864;23.360;2023-05-02T09:08:36;96304.53;;;19.57;50.77
29169;BME280;16219;42.864;23.360;2023-05-02T09:11:04;96298.34;;;19.72;49.56
29169;BME280;16219;42.864;23.360;2023-05-02T09:13:33;96293.91;;;19.83;50.58
29169;BME280;16219;42.864;23.360;2023-05-02T09:16:03;96280.44;;;19.76;48.25
29169;BME280;16219;42.864;23.360;2023-05-02T09:18:31;96292.91;;;19.91;52.35
29169;BME280;16219;42.864;23.360;2023-05-02T09:20:59;96277.06;;;19.60;49.48
29169;BME280;16219;42.864;23.360;2023-05-02T09:23:39;96275.19;;;19.41;44.77
29169;BME280;16219;42.864;23.360;2023-05-02T09:26:17;96271.88;;;19.47;47.81
29169;BME280;16219;42.864;23.360;2023-05-02T09:28:46;96262.59;;;19.41;48.50
29169;BME280;16219;42.864;23.360;2023-05-02T09:31:14;96270.34;;;19.46;49.55
29169;BME280;16219;42.864;23.360;2023-05-02T09:33:42;96281.38;;;19.64;52.47
29169;BME280;16219;42.864;23.360;2023-05-02T09:36:11;96272.13;;;19.62;50.49
29169;BME280;16219;42.864;23.360;2023-05-02T09:38:41;96266.91;;;19.69;47.34
29169;BME280;16219;42.864;23.360;2023-05-02T09:41:09;96272.63;;;19.90;47.13
29169;BME280;16219;42.864;23.360;2023-05-02T09:43:36;96255.78;;;19.90;48.79
29169;BME280;16219;42.864;23.360;2023-05-02T09:46:05;96267.31;;;19.94;49.14
29169;BME280;16219;42.864;23.360;2023-05-02T09:48:50;96260.63;;;20.07;47.89
29169;BME280;16219;42.864;23.360;2023-05-02T09:51:18;96266.81;;;20.11;47.53
29169;BME280;16219;42.864;23.360;2023-05-02T09:53:48;96255.94;;;20.27;50.20
29169;BME280;16219;42.864;23.360;2023-05-02T09:56:15;96264.59;;;20.43;48.79
29169;BME280;16219;42.864;23.360;2023-05-02T09:58:42;96261.94;;;20.47;48.60
29169;BME280;16219;42.864;23.360;2023-05-02T10:01:13;96261.09;;;20.39;51.46
29169;BME280;16219;42.864;23.360;2023-05-02T10:03:40;96246.97;;;20.42;45.14
29169;BME280;16219;42.864;23.360;2023-05-02T10:06:08;96243.66;;;20.49;50.62
29169;BME280;16219;42.864;23.360;2023-05-02T10:08:35;96238.28;;;20.49;48.21
29169;BME280;16219;42.864;23.360;2023-05-02T10:11:07;96251.69;;;20.79;48.87
29169;BME280;16219;42.864;23.360;2023-05-02T10:13:36;96242.16;;;20.85;48.45
29169;BME280;16219;42.864;23.360;2023-05-02T10:16:05;96244.28;;;20.69;51.33
29169;BME280;16219;42.864;23.360;2023-05-02T10:18:39;96240.13;;;20.75;47.49
29169;BME280;16219;42.864;23.360;2023-05-02T10:21:09;96247.03;;;20.76;46.95
29169;BME280;16219;42.864;23.360;2023-05-02T10:23:37;96245.50;;;20.75;48.74
29169;BME280;16219;42.864;23.360;2023-05-02T10:26:08;96240.47;;;20.70;46.27
29169;BME280;16219;42.864;23.360;2023-05-02T10:28:37;96241.59;;;20.69;47.88
29169;BME280;16219;42.864;23.360;2023-05-02T10:31:04;96234.72;;;20.71;47.40
29169;BME280;16219;42.864;23.360;2023-05-02T10:33:33;96235.16;;;20.74;50.89
29169;BME280;16219;42.864;23.360;2023-05-02T10:36:01;96236.81;;;20.85;47.87
29169;BME280;16219;42.864;23.360;2023-05-02T10:38:28;96226.22;;;20.96;46.46
29169;BME280;16219;42.864;23.360;2023-05-02T10:40:59;96226.59;;;20.94;46.08
29169;BME280;16219;42.864;23.360;2023-05-02T10:43:30;96208.06;;;20.82;46.70
29169;BME280;16219;42.864;23.360;2023-05-02T10:45:58;96212.59;;;20.78;49.91
29169;BME280;16219;42.864;23.360;2023-05-02T10:48:28;96211.22;;;20.91;45.29
29169;BME280;16219;42.864;23.360;2023-05-02T10:50:57;96209.69;;;20.94;44.52
29169;BME280;16219;42.864;23.360;2023-05-02T10:53:28;96209.47;;;21.10;45.63
29169;BME280;16219;42.864;23.360;2023-05-02T10:56:10;96215.31;;;21.15;46.71
29169;BME280;16219;42.864;23.360;2023-05-02T10:58:40;96199.38;;;20.96;43.77
29169;BME280;16219;42.864;23.360;2023-05-02T11:01:37;96211.53;;;21.20;48.95
29169;BME280;16219;42.864;23.360;2023-05-02T11:04:06;96209.31;;;21.29;47.26
29169;BME280;16219;42.864;23.360;2023-05-02T11:06:35;96210.22;;;21.44;48.01
29169;BME280;16219;42.864;23.360;2023-05-02T11:09:29;96204.22;;;21.61;43.87
29169;BME280;16219;42.864;23.360;2023-05-02T11:11:58;96207.06;;;21.83;43.70
29169;BME280;16219;42.864;23.360;2023-05-02T11:14:55;96195.47;;;21.68;44.46
29169;BME280;16219;42.864;23.360;2023-05-02T11:17:22;96201.81;;;21.45;44.18
29169;BME280;16219;42.864;23.360;2023-05-02T11:20:23;96201.06;;;21.49;44.60
29169;BME280;16219;42.864;23.360;2023-05-02T11:22:57;96194.88;;;21.41;46.19
29169;BME280;16219;42.864;23.360;2023-05-02T11:25:43;96188.22;;;21.72;45.22
29169;BME280;16219;42.864;23.360;2023-05-02T11:28:38;96187.94;;;21.91;43.10
29169;BME280;16219;42.864;23.360;2023-05-02T11:31:07;96179.13;;;21.91;45.38
29169;BME280;16219;42.864;23.360;2023-05-02T11:33:36;96184.53;;;21.94;45.10
29169;BME280;16219;42.864;23.360;2023-05-02T11:36:04;96183.00;;;21.93;44.02
29169;BME280;16219;42.864;23.360;2023-05-02T11:38:36;96175.25;;;21.85;43.63
29169;BME280;16219;42.864;23.360;2023-05-02T11:41:04;96178.19;;;21.65;41.72
29169;BME280;16219;42.864;23.360;2023-05-02T11:43:31;96185.84;;;21.63;47.51
29169;BME280;16219;42.864;23.360;2023-05-02T11:46:00;96188.16;;;21.65;46.50
29169;BME280;16219;42.864;23.360;2023-05-02T11:48:29;96183.63;;;21.76;47.38
29169;BME280;16219;42.864;23.360;2023-05-02T11:50:58;96172.50;;;21.78;41.85
29169;BME280;16219;42.864;23.360;2023-05-02T11:53:28;96176.69;;;21.68;45.86
29169;BME280;16219;42.864;23.360;2023-05-02T11:55:57;96165.16;;;21.67;45.74
29169;BME280;16219;42.864;23.360;2023-05-02T11:58:26;96168.91;;;21.56;46.41
29169;BME280;16219;42.864;23.360;2023-05-02T12:00:55;96169.28;;;21.58;40.92
29169;BME280;16219;42.864;23.360;2023-05-02T12:03:25;96164.56;;;21.40;41.67
29169;BME280;16219;42.864;23.360;2023-05-02T12:05:55;96144.97;;;21.36;42.53
29169;BME280;16219;42.864;23.360;2023-05-02T12:08:25;96152.81;;;21.56;45.73
29169;BME280;16219;42.864;23.360;2023-05-02T12:10:54;96156.38;;;21.74;43.41
29169;BME280;16219;42.864;23.360;2023-05-02T12:13:23;96149.16;;;21.85;46.50
29169;BME280;16219;42.864;23.360;2023-05-02T12:15:51;96131.53;;;21.91;41.71
29169;BME280;16219;42.864;23.360;2023-05-02T12:18:21;96128.44;;;21.86;43.60
29169;BME280;16219;42.864;23.360;2023-05-02T12:20:49;96122.75;;;21.98;45.27
29169;BME280;16219;42.864;23.360;2023-05-02T12:23:19;96125.59;;;22.19;40.36
29169;BME280;16219;42.864;23.360;2023-05-02T12:25:47;96126.38;;;22.24;43.57
29169;BME280;16219;42.864;23.360;2023-05-02T12:28:16;96119.50;;;22.33;42.89
29169;BME280;16219;42.864;23.360;2023-05-02T12:30:46;96121.78;;;22.28;40.71
29169;BME280;16219;42.864;23.360;2023-05-02T12:33:14;96117.97;;;22.32;41.82
29169;BME280;16219;42.864;23.360;2023-05-02T12:35:42;96107.25;;;22.46;43.32
29169;BME280;16219;42.864;23.360;2023-05-02T12:38:11;96110.00;;;22.68;45.22
29169;BME280;16219;42.864;23.360;2023-05-02T12:40:47;96102.66;;;22.43;41.20
29169;BME280;16219;42.864;23.360;2023-05-02T12:43:15;96084.13;;;22.24;38.24
29169;BME280;16219;42.864;23.360;2023-05-02T12:45:42;96086.44;;;22.26;42.11
29169;BME280;16219;42.864;23.360;2023-05-02T12:48:33;96076.44;;;22.19;39.64
29169;BME280;16219;42.864;23.360;2023-05-02T12:51:01;96079.13;;;22.15;41.45
29169;BME280;16219;42.864;23.360;2023-05-02T12:53:38;96086.84;;;22.38;41.44
29169;BME280;16219;42.864;23.360;2023-05-02T12:56:08;96077.66;;;22.36;42.22
29169;BME280;16219;42.864;23.360;2023-05-02T12:58:40;96073.78;;;22.23;42.83
29169;BME280;16219;42.864;23.360;2023-05-02T13:01:08;96083.75;;;22.26;39.91